»·PEaware :: N573LA KMRY-KSAC

N573LA :: KMRY-KSAC

FLIGHT INFORMATION

Flight Status: Arrived
Operator: Privately registered:
United States
More flights under this callsign
Pilot: Anonymous 18904 (18904)
Aircraft: BEECH AIRCRAFT BONANZA
(BE35)
More flights by this aircraft type
Origin: KMRY Monterey Peninsula
United States
Destination: KSAC Sacramento Executive
United States
More flights between these airports :: More routes between these airports
Route: MRY5 SHOEY SNS V111 MOD LIN
File this flight plan on PilotEdge
Remarks: RMK / HONK )
Altitude:
(Current/Filed)
11,000ft
Speed:
(Current/Filed)
150kts
Departed: 12-Sep-22 03:57 PM
Arrived: 12-Sep-22 04:56 PM
Distance/Time
Traveled:
117nm/0:58
Distance/Time
To Go:
Arrived

Flight Plot

Page will automatically refresh every two minutes.

Flight plan parsing failed; only flown route is shown


Map Options




Map Legend


Flown Route
Filed Route
Departure Airport
Arrival Airport
Navaid (VOR, NDB)
Fix

Horizontal Profiles

Position Reports

Time Latitude Longitude Heading Altitude Ground
Speed
12-Sep-22 15:37 36.585458 -121.845800 53 209ft 0kts
12-Sep-22 15:38 36.585458 -121.845800 53 209ft 0kts
12-Sep-22 15:39 36.585458 -121.845800 53 209ft 0kts
12-Sep-22 15:40 36.585458 -121.845800 53 209ft 0kts
12-Sep-22 15:41 36.585458 -121.845800 53 209ft 0kts
12-Sep-22 15:42 36.585458 -121.845800 53 209ft 0kts
12-Sep-22 15:43 36.585458 -121.845800 53 209ft 0kts
12-Sep-22 15:44 36.585458 -121.845800 53 209ft 0kts
12-Sep-22 15:45 36.585458 -121.845800 53 209ft 0kts
12-Sep-22 15:46 36.585458 -121.845800 53 209ft 0kts
12-Sep-22 15:47 36.585458 -121.845800 53 209ft 0kts
12-Sep-22 15:48 36.585458 -121.845800 53 209ft 0kts
12-Sep-22 15:49 36.585458 -121.845800 53 209ft 0kts
12-Sep-22 15:50 36.585458 -121.845800 53 209ft 0kts
12-Sep-22 15:51 36.585458 -121.845800 53 209ft 0kts
12-Sep-22 15:52 36.586193 -121.846489 20 209ft 0kts
12-Sep-22 15:53 36.585677 -121.843326 111 218ft 20kts
12-Sep-22 15:54 36.583341 -121.836369 110 250ft 12kts
12-Sep-22 15:55 36.582883 -121.834777 94 256ft 6kts
12-Sep-22 15:56 36.586595 -121.842798 292 468ft 82kts
12-Sep-22 15:57 36.603321 -121.864518 340 1572ft 116kts
12-Sep-22 15:58 36.634723 -121.871717 35 2795ft 115kts
12-Sep-22 15:59 36.633703 -121.829162 77 3590ft 151kts
12-Sep-22 16:00 36.641782 -121.786880 77 5168ft 108kts
12-Sep-22 16:01 36.646645 -121.746700 81 6151ft 123kts
12-Sep-22 16:02 36.651772 -121.703969 82 7101ft 126kts
12-Sep-22 16:03 36.656980 -121.660556 82 8065ft 127kts
12-Sep-22 16:04 36.666148 -121.618191 65 8943ft 132kts
12-Sep-22 16:05 36.691456 -121.584742 25 9635ft 138kts
12-Sep-22 16:06 36.725474 -121.562460 26 10316ft 138kts
12-Sep-22 16:07 36.759690 -121.539837 26 10897ft 144kts
12-Sep-22 16:08 36.797726 -121.514634 26 10928ft 163kts
12-Sep-22 16:09 36.838447 -121.487630 26 10922ft 166kts
12-Sep-22 16:10 36.879238 -121.460553 26 10929ft 166kts
12-Sep-22 16:11 36.920017 -121.433435 26 10927ft 166kts
12-Sep-22 16:12 36.961136 -121.406073 26 10928ft 168kts
12-Sep-22 16:13 37.002207 -121.378710 26 10918ft 165kts
12-Sep-22 16:14 37.042805 -121.351626 26 10936ft 166kts
12-Sep-22 16:15 37.083671 -121.324326 26 10935ft 167kts
12-Sep-22 16:16 37.124823 -121.296789 26 10931ft 168kts
12-Sep-22 16:17 37.166221 -121.269065 26 10921ft 169kts
12-Sep-22 16:18 37.207473 -121.241402 26 10907ft 167kts
12-Sep-22 16:19 37.248334 -121.213965 26 10899ft 166kts
12-Sep-22 16:20 37.288238 -121.187142 26 11016ft 160kts
12-Sep-22 16:21 37.327945 -121.160420 26 11027ft 162kts
12-Sep-22 16:22 37.367715 -121.133631 26 11027ft 163kts
12-Sep-22 16:23 37.407996 -121.106454 26 11014ft 164kts
12-Sep-22 16:24 37.448265 -121.079255 26 11012ft 164kts
12-Sep-22 16:25 37.488817 -121.051832 26 11008ft 165kts
12-Sep-22 16:26 37.529230 -121.024461 26 11008ft 165kts
12-Sep-22 16:27 37.569851 -120.996923 26 11004ft 165kts
12-Sep-22 16:28 37.609607 -120.969913 26 11003ft 139kts
12-Sep-22 16:29 37.650113 -120.960057 351 11010ft 158kts
12-Sep-22 16:30 37.694759 -120.964758 352 11008ft 163kts
12-Sep-22 16:31 37.740041 -120.969405 352 11008ft 163kts
12-Sep-22 16:32 37.785179 -120.974035 352 11002ft 162kts
12-Sep-22 16:33 37.830225 -120.978662 352 11011ft 162kts
12-Sep-22 16:34 37.875337 -120.983295 352 11012ft 162kts
12-Sep-22 16:35 37.920448 -120.987945 352 11018ft 163kts
12-Sep-22 16:36 37.965846 -120.992627 352 11020ft 164kts
12-Sep-22 16:37 38.011324 -120.997319 352 11019ft 163kts
12-Sep-22 16:38 38.056517 -121.001989 352 11019ft 162kts
12-Sep-22 16:39 38.095264 -121.026561 315 11021ft 157kts
12-Sep-22 16:40 38.128040 -121.063105 316 11014ft 156kts
12-Sep-22 16:41 38.160894 -121.099603 316 10931ft 162kts
12-Sep-22 16:42 38.194782 -121.137284 316 10192ft 162kts
12-Sep-22 16:43 38.229042 -121.175426 316 9412ft 163kts
12-Sep-22 16:44 38.263381 -121.213697 316 8616ft 164kts
12-Sep-22 16:45 38.297626 -121.251920 316 7487ft 160kts
12-Sep-22 16:46 38.331059 -121.289291 317 6355ft 160kts
12-Sep-22 16:47 38.364697 -121.326527 318 5183ft 157kts
12-Sep-22 16:48 38.399216 -121.356690 327 4258ft 144kts
12-Sep-22 16:49 38.433946 -121.381182 332 3655ft 144kts
12-Sep-22 16:50 38.470581 -121.401845 336 3078ft 144kts
12-Sep-22 16:51 38.507878 -121.420637 337 2147ft 143kts
12-Sep-22 16:52 38.535264 -121.447711 291 1088ft 108kts
12-Sep-22 16:53 38.531480 -121.478935 215 415ft 78kts
12-Sep-22 16:54 38.516224 -121.491591 213 39ft 56kts
12-Sep-22 16:55 38.511363 -121.496637 272 21ft 8kts
12-Sep-22 16:56 38.512469 -121.497963 28 24ft 0kts
12-Sep-22 16:57 38.512469 -121.497963 28 24ft 0kts

Navigation Log

Ident Type
Flight plan parsing failed, navigation log unavailable